sensor_id;sensor_type;location;lat;lon;timestamp;pressure;altitude;pressure_sealevel;temperature;humidity
50394;BME280;36308;46.312;25.288;2024-02-15T00:00:29;96598.63;;;4.86;63.34
50394;BME280;36308;46.312;25.288;2024-02-15T00:02:54;96599.84;;;4.84;63.38
50394;BME280;36308;46.312;25.288;2024-02-15T00:05:20;96596.97;;;4.85;63.32
50394;BME280;36308;46.312;25.288;2024-02-15T00:07:45;96599.63;;;4.85;63.80
50394;BME280;36308;46.312;25.288;2024-02-15T00:10:13;96607.41;;;4.87;63.57
50394;BME280;36308;46.312;25.288;2024-02-15T00:12:39;96606.00;;;4.84;63.75
50394;BME280;36308;46.312;25.288;2024-02-15T00:15:05;96607.00;;;4.83;63.49
50394;BME280;36308;46.312;25.288;2024-02-15T00:17:31;96609.06;;;4.81;63.71
50394;BME280;36308;46.312;25.288;2024-02-15T00:19:57;96609.06;;;4.81;63.91
50394;BME280;36308;46.312;25.288;2024-02-15T00:22:24;96587.97;;;4.66;64.05
50394;BME280;36308;46.312;25.288;2024-02-15T00:24:50;96584.31;;;4.61;63.92
50394;BME280;36308;46.312;25.288;2024-02-15T00:27:16;96618.72;;;4.82;63.90
50394;BME280;36308;46.312;25.288;2024-02-15T00:29:41;96616.66;;;4.78;63.34
50394;BME280;36308;46.312;25.288;2024-02-15T00:32:09;96593.50;;;4.58;63.24
50394;BME280;36308;46.312;25.288;2024-02-15T00:34:36;96609.50;;;4.72;63.29
50394;BME280;36308;46.312;25.288;2024-02-15T00:37:04;96618.09;;;4.74;63.13
50394;BME280;36308;46.312;25.288;2024-02-15T00:39:30;96590.84;;;4.52;63.07
50394;BME280;36308;46.312;25.288;2024-02-15T00:41:57;96588.81;;;4.54;62.98
50394;BME280;36308;46.312;25.288;2024-02-15T00:44:23;96616.47;;;4.66;63.47
50394;BME280;36308;46.312;25.288;2024-02-15T00:46:48;96608.28;;;4.68;62.88
50394;BME280;36308;46.312;25.288;2024-02-15T00:49:14;96607.25;;;4.62;62.64
50394;BME280;36308;46.312;25.288;2024-02-15T00:51:39;96610.53;;;4.64;63.09
50394;BME280;36308;46.312;25.288;2024-02-15T00:54:05;96580.41;;;4.43;62.61
50394;BME280;36308;46.312;25.288;2024-02-15T00:56:31;96613.00;;;4.59;62.56
50394;BME280;36308;46.312;25.288;2024-02-15T00:58:59;96600.06;;;4.56;62.77
50394;BME280;36308;46.312;25.288;2024-02-15T01:01:26;96596.78;;;4.54;63.11
50394;BME280;36308;46.312;25.288;2024-02-15T01:03:51;96573.47;;;4.36;63.01
50394;BME280;36308;46.312;25.288;2024-02-15T01:06:17;96592.91;;;4.50;63.13
50394;BME280;36308;46.312;25.288;2024-02-15T01:08:42;96557.28;;;4.31;63.04
50394;BME280;36308;46.312;25.288;2024-02-15T01:11:08;96532.31;;;4.12;63.14
50394;BME280;36308;46.312;25.288;2024-02-15T01:13:34;96534.97;;;4.12;63.16
50394;BME280;36308;46.312;25.288;2024-02-15T01:16:00;96587.16;;;4.46;62.92
50394;BME280;36308;46.312;25.288;2024-02-15T01:18:29;96571.41;;;4.31;63.01
50394;BME280;36308;46.312;25.288;2024-02-15T01:20:55;96595.78;;;4.41;63.38
50394;BME280;36308;46.312;25.288;2024-02-15T01:23:21;96594.97;;;4.41;63.35
50394;BME280;36308;46.312;25.288;2024-02-15T01:25:48;96606.41;;;4.41;62.75
50394;BME280;36308;46.312;25.288;2024-02-15T01:28:13;96594.53;;;4.37;62.81
50394;BME280;36308;46.312;25.288;2024-02-15T01:30:39;96602.34;;;4.39;62.71
50394;BME280;36308;46.312;25.288;2024-02-15T01:33:04;96596.59;;;4.35;63.09
50394;BME280;36308;46.312;25.288;2024-02-15T01:35:30;96599.47;;;4.34;63.28
50394;BME280;36308;46.312;25.288;2024-02-15T01:37:55;96595.97;;;4.33;63.11
50394;BME280;36308;46.312;25.288;2024-02-15T01:40:21;96597.00;;;4.32;62.77
50394;BME280;36308;46.312;25.288;2024-02-15T01:42:47;96599.47;;;4.34;63.13
50394;BME280;36308;46.312;25.288;2024-02-15T01:45:16;96573.03;;;4.19;63.10
50394;BME280;36308;46.312;25.288;2024-02-15T01:47:42;96599.06;;;4.30;62.97
50394;BME280;36308;46.312;25.288;2024-02-15T01:50:12;96559.72;;;4.05;62.83
50394;BME280;36308;46.312;25.288;2024-02-15T01:52:40;96601.09;;;4.28;63.37
50394;BME280;36308;46.312;25.288;2024-02-15T01:55:06;96596.19;;;4.25;62.82
50394;BME280;36308;46.312;25.288;2024-02-15T01:57:33;96603.16;;;4.26;63.07
50394;BME280;36308;46.312;25.288;2024-02-15T01:59:59;96603.97;;;4.27;63.11
50394;BME280;36308;46.312;25.288;2024-02-15T02:02:25;96577.31;;;4.07;62.82
50394;BME280;36308;46.312;25.288;2024-02-15T02:04:56;96600.25;;;4.21;63.04
50394;BME280;36308;46.312;25.288;2024-02-15T02:07:22;96592.91;;;4.16;62.78
50394;BME280;36308;46.312;25.288;2024-02-15T02:09:48;96567.47;;;4.00;63.39
50394;BME280;36308;46.312;25.288;2024-02-15T02:12:14;96607.00;;;4.17;62.97
50394;BME280;36308;46.312;25.288;2024-02-15T02:14:41;96602.13;;;4.14;62.99
50394;BME280;36308;46.312;25.288;2024-02-15T02:17:11;96601.91;;;4.15;63.17
50394;BME280;36308;46.312;25.288;2024-02-15T02:19:39;96593.50;;;4.12;63.39
50394;BME280;36308;46.312;25.288;2024-02-15T02:22:04;96587.16;;;4.13;63.10
50394;BME280;36308;46.312;25.288;2024-02-15T02:24:33;96598.63;;;4.13;63.31
50394;BME280;36308;46.312;25.288;2024-02-15T02:27:05;96577.94;;;3.95;62.94
50394;BME280;36308;46.312;25.288;2024-02-15T02:29:32;96590.00;;;4.04;63.15
50394;BME280;36308;46.312;25.288;2024-02-15T02:31:58;96597.78;;;4.06;63.42
50394;BME280;36308;46.312;25.288;2024-02-15T02:34:23;96618.69;;;4.16;63.17
50394;BME280;36308;46.312;25.288;2024-02-15T02:36:50;96621.97;;;4.18;63.70
50394;BME280;36308;46.312;25.288;2024-02-15T02:39:16;96624.44;;;4.19;63.37
50394;BME280;36308;46.312;25.288;2024-02-15T02:41:42;96595.31;;;4.04;63.40
50394;BME280;36308;46.312;25.288;2024-02-15T02:44:08;96620.31;;;4.17;63.65
50394;BME280;36308;46.312;25.288;2024-02-15T02:46:34;96619.94;;;4.20;64.03
50394;BME280;36308;46.312;25.288;2024-02-15T02:49:00;96630.56;;;4.20;63.81
50394;BME280;36308;46.312;25.288;2024-02-15T02:51:26;96637.13;;;4.24;63.75
50394;BME280;36308;46.312;25.288;2024-02-15T02:53:51;96633.44;;;4.25;63.78
50394;BME280;36308;46.312;25.288;2024-02-15T02:56:17;96625.69;;;4.23;63.78
50394;BME280;36308;46.312;25.288;2024-02-15T02:58:43;96586.34;;;3.99;63.70
50394;BME280;36308;46.312;25.288;2024-02-15T03:01:10;96638.75;;;4.25;63.33
50394;BME280;36308;46.312;25.288;2024-02-15T03:03:36;96628.53;;;4.22;63.84
50394;BME280;36308;46.312;25.288;2024-02-15T03:06:03;96637.53;;;4.21;63.72
50394;BME280;36308;46.312;25.288;2024-02-15T03:08:29;96619.50;;;4.10;63.28
50394;BME280;36308;46.312;25.288;2024-02-15T03:10:55;96637.94;;;4.18;63.44
50394;BME280;36308;46.312;25.288;2024-02-15T03:13:21;96633.00;;;4.15;63.19
50394;BME280;36308;46.312;25.288;2024-02-15T03:15:46;96639.97;;;4.16;63.03
50394;BME280;36308;46.312;25.288;2024-02-15T03:18:15;96638.34;;;4.15;63.46
50394;BME280;36308;46.312;25.288;2024-02-15T03:20:41;96605.16;;;3.91;63.62
50394;BME280;36308;46.312;25.288;2024-02-15T03:23:07;96592.44;;;3.86;63.41
50394;BME280;36308;46.312;25.288;2024-02-15T03:25:32;96638.13;;;4.10;63.24
50394;BME280;36308;46.312;25.288;2024-02-15T03:28:00;96634.66;;;4.09;63.46
50394;BME280;36308;46.312;25.288;2024-02-15T03:30:31;96645.50;;;4.08;63.35
50394;BME280;36308;46.312;25.288;2024-02-15T03:32:57;96603.06;;;3.79;63.41
50394;BME280;36308;46.312;25.288;2024-02-15T03:35:27;96644.88;;;4.05;63.72
50394;BME280;36308;46.312;25.288;2024-02-15T03:37:54;96604.28;;;3.77;63.22
50394;BME280;36308;46.312;25.288;2024-02-15T03:40:21;96609.59;;;3.77;63.30
50394;BME280;36308;46.312;25.288;2024-02-15T03:42:47;96639.13;;;3.95;63.40
50394;BME280;36308;46.312;25.288;2024-02-15T03:45:13;96623.53;;;3.79;62.83
50394;BME280;36308;46.312;25.288;2024-02-15T03:47:38;96655.50;;;3.92;63.63
50394;BME280;36308;46.312;25.288;2024-02-15T03:50:05;96652.22;;;3.90;63.31
50394;BME280;36308;46.312;25.288;2024-02-15T03:52:33;96623.50;;;3.66;63.57
50394;BME280;36308;46.312;25.288;2024-02-15T03:54:59;96661.63;;;3.86;63.24
50394;BME280;36308;46.312;25.288;2024-02-15T03:57:25;96661.41;;;3.88;63.55
50394;BME280;36308;46.312;25.288;2024-02-15T03:59:52;96644.97;;;3.71;63.20
50394;BME280;36308;46.312;25.288;2024-02-15T04:02:23;96669.78;;;3.84;63.13
50394;BME280;36308;46.312;25.288;2024-02-15T04:04:52;96671.19;;;3.80;63.77
50394;BME280;36308;46.312;25.288;2024-02-15T04:07:19;96671.81;;;3.82;63.74
50394;BME280;36308;46.312;25.288;2024-02-15T04:09:45;96678.38;;;3.80;63.57
50394;BME280;36308;46.312;25.288;2024-02-15T04:12:12;96643.91;;;3.58;63.65
50394;BME280;36308;46.312;25.288;2024-02-15T04:14:38;96675.09;;;3.78;63.39
50394;BME280;36308;46.312;25.288;2024-02-15T04:17:04;96667.69;;;3.73;63.40
50394;BME280;36308;46.312;25.288;2024-02-15T04:19:31;96665.25;;;3.72;63.32
50394;BME280;36308;46.312;25.288;2024-02-15T04:21:56;96655.19;;;3.67;63.53
50394;BME280;36308;46.312;25.288;2024-02-15T04:24:22;96672.59;;;3.70;63.91
50394;BME280;36308;46.312;25.288;2024-02-15T04:26:48;96674.38;;;3.62;64.02
50394;BME280;36308;46.312;25.288;2024-02-15T04:29:14;96680.75;;;3.61;63.53
50394;BME280;36308;46.312;25.288;2024-02-15T04:31:41;96661.84;;;3.43;63.94
50394;BME280;36308;46.312;25.288;2024-02-15T04:34:08;96677.63;;;3.51;64.11
50394;BME280;36308;46.312;25.288;2024-02-15T04:36:35;96654.03;;;3.35;63.66
50394;BME280;36308;46.312;25.288;2024-02-15T04:39:00;96686.38;;;3.45;63.61
50394;BME280;36308;46.312;25.288;2024-02-15T04:44:13;96677.84;;;3.21;64.03
50394;BME280;36308;46.312;25.288;2024-02-15T04:46:41;96678.47;;;3.23;63.67
50394;BME280;36308;46.312;25.288;2024-02-15T04:49:10;96686.22;;;3.18;64.26
50394;BME280;36308;46.312;25.288;2024-02-15T04:51:35;96695.19;;;3.17;64.19
50394;BME280;36308;46.312;25.288;2024-02-15T04:54:02;96691.69;;;3.10;63.75
50394;BME280;36308;46.312;25.288;2024-02-15T04:56:27;96700.03;;;3.07;64.09
50394;BME280;36308;46.312;25.288;2024-02-15T04:58:53;96694.69;;;3.00;64.33
50394;BME280;36308;46.312;25.288;2024-02-15T05:01:19;96690.34;;;2.93;64.43
50394;BME280;36308;46.312;25.288;2024-02-15T05:03:45;96651.94;;;2.67;64.11
50394;BME280;36308;46.312;25.288;2024-02-15T05:06:11;96697.44;;;2.86;64.15
50394;BME280;36308;46.312;25.288;2024-02-15T05:08:39;96697.19;;;2.80;64.37
50394;BME280;36308;46.312;25.288;2024-02-15T05:11:09;96692.41;;;2.69;65.03
50394;BME280;36308;46.312;25.288;2024-02-15T05:13:40;96702.56;;;2.66;64.49
50394;BME280;36308;46.312;25.288;2024-02-15T05:16:06;96702.50;;;2.59;64.78
50394;BME280;36308;46.312;25.288;2024-02-15T05:18:32;96703.28;;;2.53;64.72
50394;BME280;36308;46.312;25.288;2024-02-15T05:21:00;96706.69;;;2.47;64.45
50394;BME280;36308;46.312;25.288;2024-02-15T05:23:26;96711.13;;;2.39;64.92
50394;BME280;36308;46.312;25.288;2024-02-15T05:25:52;96709.22;;;2.33;64.95
50394;BME280;36308;46.312;25.288;2024-02-15T05:28:19;96718.41;;;2.31;64.95
50394;BME280;36308;46.312;25.288;2024-02-15T05:31:11;96710.72;;;2.21;64.93
50394;BME280;36308;46.312;25.288;2024-02-15T05:33:38;96707.22;;;2.14;65.48
50394;BME280;36308;46.312;25.288;2024-02-15T05:36:08;96717.19;;;2.12;65.76
50394;BME280;36308;46.312;25.288;2024-02-15T05:38:34;96724.84;;;2.07;65.30
50394;BME280;36308;46.312;25.288;2024-02-15T05:40:59;96706.69;;;1.89;65.66
50394;BME280;36308;46.312;25.288;2024-02-15T05:43:25;96732.94;;;1.98;65.92
50394;BME280;36308;46.312;25.288;2024-02-15T05:45:51;96730.03;;;1.93;65.94
50394;BME280;36308;46.312;25.288;2024-02-15T05:48:18;96735.84;;;1.89;66.36
50394;BME280;36308;46.312;25.288;2024-02-15T05:50:44;96732.78;;;1.85;65.80
50394;BME280;36308;46.312;25.288;2024-02-15T05:53:09;96732.31;;;1.81;66.82
50394;BME280;36308;46.312;25.288;2024-02-15T05:55:35;96746.78;;;1.79;66.69
50394;BME280;36308;46.312;25.288;2024-02-15T05:58:02;96714.25;;;1.55;66.49
50394;BME280;36308;46.312;25.288;2024-02-15T06:00:27;96744.22;;;1.71;66.78
50394;BME280;36308;46.312;25.288;2024-02-15T06:02:55;96740.28;;;1.67;66.75
50394;BME280;36308;46.312;25.288;2024-02-15T06:05:21;96745.13;;;1.63;66.89
50394;BME280;36308;46.312;25.288;2024-02-15T06:07:47;96752.28;;;1.63;66.56
50394;BME280;36308;46.312;25.288;2024-02-15T06:10:13;96752.63;;;1.59;66.59
50394;BME280;36308;46.312;25.288;2024-02-15T06:12:41;96754.00;;;1.55;66.97
50394;BME280;36308;46.312;25.288;2024-02-15T06:15:07;96755.66;;;1.56;67.34
50394;BME280;36308;46.312;25.288;2024-02-15T06:17:40;96756.84;;;1.54;68.11
50394;BME280;36308;46.312;25.288;2024-02-15T06:20:06;96766.59;;;1.53;67.49
50394;BME280;36308;46.312;25.288;2024-02-15T06:22:33;96755.19;;;1.53;68.14
50394;BME280;36308;46.312;25.288;2024-02-15T06:24:58;96735.44;;;1.40;68.07
50394;BME280;36308;46.312;25.288;2024-02-15T06:27:24;96761.31;;;1.53;68.61
50394;BME280;36308;46.312;25.288;2024-02-15T06:29:50;96755.00;;;1.54;68.50
50394;BME280;36308;46.312;25.288;2024-02-15T06:32:34;96766.25;;;1.56;68.30
50394;BME280;36308;46.312;25.288;2024-02-15T06:35:18;96753.91;;;1.49;69.08
50394;BME280;36308;46.312;25.288;2024-02-15T06:38:02;96773.00;;;1.59;68.92
50394;BME280;36308;46.312;25.288;2024-02-15T06:40:45;96773.81;;;1.59;69.20
50394;BME280;36308;46.312;25.288;2024-02-15T06:43:11;96767.78;;;1.66;68.87
50394;BME280;36308;46.312;25.288;2024-02-15T06:45:37;96729.41;;;1.47;69.14
50394;BME280;36308;46.312;25.288;2024-02-15T06:48:04;96762.78;;;1.71;69.79
50394;BME280;36308;46.312;25.288;2024-02-15T06:50:29;96751.78;;;1.74;69.80
50394;BME280;36308;46.312;25.288;2024-02-15T06:52:55;96763.97;;;1.83;69.47
50394;BME280;36308;46.312;25.288;2024-02-15T06:55:21;96762.59;;;1.87;70.26
50394;BME280;36308;46.312;25.288;2024-02-15T06:57:47;96765.94;;;1.96;69.43
50394;BME280;36308;46.312;25.288;2024-02-15T07:00:13;96769.69;;;2.01;69.98
50394;BME280;36308;46.312;25.288;2024-02-15T07:02:41;96736.59;;;1.97;71.06
50394;BME280;36308;46.312;25.288;2024-02-15T07:05:09;96768.81;;;2.31;70.12
50394;BME280;36308;46.312;25.288;2024-02-15T07:07:35;96770.16;;;2.41;69.92
50394;BME280;36308;46.312;25.288;2024-02-15T07:10:01;96764.91;;;2.48;69.59
50394;BME280;36308;46.312;25.288;2024-02-15T07:12:28;96771.47;;;2.52;69.30
50394;BME280;36308;46.312;25.288;2024-02-15T07:14:53;96770.16;;;2.63;69.41
50394;BME280;36308;46.312;25.288;2024-02-15T07:17:20;96778.38;;;2.68;69.14
50394;BME280;36308;46.312;25.288;2024-02-15T07:19:46;96783.56;;;2.76;69.55
50394;BME280;36308;46.312;25.288;2024-02-15T07:22:17;96767.25;;;2.79;69.13
50394;BME280;36308;46.312;25.288;2024-02-15T07:24:42;96768.56;;;2.90;68.45
50394;BME280;36308;46.312;25.288;2024-02-15T07:27:08;96769.47;;;2.97;68.24
50394;BME280;36308;46.312;25.288;2024-02-15T07:29:35;96772.41;;;3.09;68.01
50394;BME280;36308;46.312;25.288;2024-02-15T07:32:04;96773.28;;;3.16;68.35
50394;BME280;36308;46.312;25.288;2024-02-15T07:34:30;96765.81;;;3.27;68.07
50394;BME280;36308;46.312;25.288;2024-02-15T07:36:56;96765.25;;;3.38;67.40
50394;BME280;36308;46.312;25.288;2024-02-15T07:39:25;96771.06;;;3.48;67.30
50394;BME280;36308;46.312;25.288;2024-02-15T07:41:54;96774.38;;;3.57;67.54
50394;BME280;36308;46.312;25.288;2024-02-15T07:44:20;96770.31;;;3.61;67.24
50394;BME280;36308;46.312;25.288;2024-02-15T07:46:47;96774.91;;;3.74;67.17
50394;BME280;36308;46.312;25.288;2024-02-15T07:49:13;96774.34;;;3.85;66.84
50394;BME280;36308;46.312;25.288;2024-02-15T07:51:38;96773.38;;;3.99;67.04
50394;BME280;36308;46.312;25.288;2024-02-15T07:54:04;96768.34;;;4.11;66.67
50394;BME280;36308;46.312;25.288;2024-02-15T07:56:30;96766.53;;;4.25;66.49
50394;BME280;36308;46.312;25.288;2024-02-15T07:58:55;96759.22;;;4.40;65.91
50394;BME280;36308;46.312;25.288;2024-02-15T08:01:22;96747.53;;;4.41;65.33
50394;BME280;36308;46.312;25.288;2024-02-15T08:03:48;96771.56;;;4.68;66.13
50394;BME280;36308;46.312;25.288;2024-02-15T08:06:15;96762.16;;;4.85;65.79
50394;BME280;36308;46.312;25.288;2024-02-15T08:08:47;96719.75;;;4.77;65.44
50394;BME280;36308;46.312;25.288;2024-02-15T08:11:13;96759.13;;;5.15;65.13
50394;BME280;36308;46.312;25.288;2024-02-15T08:13:45;96747.00;;;5.26;64.58
50394;BME280;36308;46.312;25.288;2024-02-15T08:16:18;96766.66;;;5.58;63.65
50394;BME280;36308;46.312;25.288;2024-02-15T08:18:44;96764.56;;;5.74;63.40
50394;BME280;36308;46.312;25.288;2024-02-15T08:21:12;96756.31;;;5.88;62.93
50394;BME280;36308;46.312;25.288;2024-02-15T08:23:37;96762.03;;;6.05;62.36
50394;BME280;36308;46.312;25.288;2024-02-15T08:26:03;96751.94;;;6.21;62.21
50394;BME280;36308;46.312;25.288;2024-02-15T08:28:29;96755.75;;;6.38;62.05
50394;BME280;36308;46.312;25.288;2024-02-15T08:30:55;96738.88;;;6.44;60.89
50394;BME280;36308;46.312;25.288;2024-02-15T08:33:22;96756.22;;;6.67;60.31
50394;BME280;36308;46.312;25.288;2024-02-15T08:35:48;96756.72;;;6.82;60.45
50394;BME280;36308;46.312;25.288;2024-02-15T08:38:14;96722.41;;;6.79;59.30
50394;BME280;36308;46.312;25.288;2024-02-15T08:40:39;96748.50;;;7.09;59.30
50394;BME280;36308;46.312;25.288;2024-02-15T08:43:05;96751.69;;;7.24;59.29
50394;BME280;36308;46.312;25.288;2024-02-15T08:45:31;96747.41;;;7.42;59.06
50394;BME280;36308;46.312;25.288;2024-02-15T08:47:56;96752.94;;;7.65;57.50
50394;BME280;36308;46.312;25.288;2024-02-15T08:50:22;96729.31;;;7.62;57.14
50394;BME280;36308;46.312;25.288;2024-02-15T08:52:49;96750.47;;;7.89;56.81
50394;BME280;36308;46.312;25.288;2024-02-15T08:55:15;96757.31;;;8.03;55.65
50394;BME280;36308;46.312;25.288;2024-02-15T08:57:42;96754.16;;;8.06;55.12
50394;BME280;36308;46.312;25.288;2024-02-15T09:00:10;96760.88;;;8.16;54.75
50394;BME280;36308;46.312;25.288;2024-02-15T09:02:48;96766.94;;;8.23;55.07
50394;BME280;36308;46.312;25.288;2024-02-15T09:05:18;96772.59;;;8.33;54.45
50394;BME280;36308;46.312;25.288;2024-02-15T09:07:45;96775.13;;;8.46;55.35
50394;BME280;36308;46.312;25.288;2024-02-15T09:10:15;96772.66;;;8.63;54.77
50394;BME280;36308;46.312;25.288;2024-02-15T09:12:44;96755.56;;;8.76;54.66
50394;BME280;36308;46.312;25.288;2024-02-15T09:15:13;96771.63;;;8.95;53.66
50394;BME280;36308;46.312;25.288;2024-02-15T09:17:39;96773.63;;;9.11;53.03
50394;BME280;36308;46.312;25.288;2024-02-15T09:20:06;96776.31;;;9.23;53.33
50394;BME280;36308;46.312;25.288;2024-02-15T09:22:33;96763.75;;;9.35;52.20
50394;BME280;36308;46.312;25.288;2024-02-15T09:24:58;96764.34;;;9.49;53.25
50394;BME280;36308;46.312;25.288;2024-02-15T09:27:24;96757.13;;;9.61;53.26
50394;BME280;36308;46.312;25.288;2024-02-15T09:29:49;96762.25;;;9.86;52.30
50394;BME280;36308;46.312;25.288;2024-02-15T09:32:14;96734.00;;;9.84;51.18
50394;BME280;36308;46.312;25.288;2024-02-15T09:34:40;96759.50;;;10.10;50.36
50394;BME280;36308;46.312;25.288;2024-02-15T09:37:07;96741.19;;;10.07;50.87
50394;BME280;36308;46.312;25.288;2024-02-15T09:39:32;96754.22;;;10.27;50.20
50394;BME280;36308;46.312;25.288;2024-02-15T09:41:58;96760.31;;;10.34;49.68
50394;BME280;36308;46.312;25.288;2024-02-15T09:44:25;96757.25;;;10.42;50.53
50394;BME280;36308;46.312;25.288;2024-02-15T09:47:03;96751.13;;;10.59;51.03
50394;BME280;36308;46.312;25.288;2024-02-15T09:49:37;96740.56;;;10.69;50.19
50394;BME280;36308;46.312;25.288;2024-02-15T09:52:06;96747.94;;;10.90;49.22
50394;BME280;36308;46.312;25.288;2024-02-15T09:54:42;96745.31;;;10.96;48.57
50394;BME280;36308;46.312;25.288;2024-02-15T09:57:09;96741.75;;;11.07;48.90
50394;BME280;36308;46.312;25.288;2024-02-15T09:59:39;96733.63;;;11.19;48.44
50394;BME280;36308;46.312;25.288;2024-02-15T10:02:05;96739.47;;;11.32;48.47
50394;BME280;36308;46.312;25.288;2024-02-15T10:04:39;96739.75;;;11.48;47.74
50394;BME280;36308;46.312;25.288;2024-02-15T10:07:05;96736.69;;;11.61;48.16
50394;BME280;36308;46.312;25.288;2024-02-15T10:09:34;96730.13;;;11.74;48.10
50394;BME280;36308;46.312;25.288;2024-02-15T10:12:02;96734.34;;;11.87;47.16
50394;BME280;36308;46.312;25.288;2024-02-15T10:14:32;96726.13;;;11.93;46.58
50394;BME280;36308;46.312;25.288;2024-02-15T10:17:06;96731.91;;;12.02;46.53
50394;BME280;36308;46.312;25.288;2024-02-15T10:19:38;96735.31;;;12.15;46.20
50394;BME280;36308;46.312;25.288;2024-02-15T10:22:08;96726.47;;;12.19;46.02
50394;BME280;36308;46.312;25.288;2024-02-15T10:24:35;96726.84;;;12.28;45.41
50394;BME280;36308;46.312;25.288;2024-02-15T10:27:03;96702.00;;;12.26;45.67
50394;BME280;36308;46.312;25.288;2024-02-15T10:29:30;96717.38;;;12.47;44.71
50394;BME280;36308;46.312;25.288;2024-02-15T10:32:00;96676.72;;;12.32;44.61
50394;BME280;36308;46.312;25.288;2024-02-15T10:34:27;96696.63;;;12.53;44.32
50394;BME280;36308;46.312;25.288;2024-02-15T10:36:54;96725.72;;;12.73;44.92
50394;BME280;36308;46.312;25.288;2024-02-15T10:39:22;96725.25;;;12.81;44.35
50394;BME280;36308;46.312;25.288;2024-02-15T10:41:52;96729.19;;;12.96;44.32
50394;BME280;36308;46.312;25.288;2024-02-15T10:44:23;96723.81;;;13.01;43.93
50394;BME280;36308;46.312;25.288;2024-02-15T10:46:50;96703.63;;;13.03;44.09
50394;BME280;36308;46.312;25.288;2024-02-15T10:49:25;96719.81;;;13.30;43.00
50394;BME280;36308;46.312;25.288;2024-02-15T10:52:01;96712.84;;;13.40;43.13
50394;BME280;36308;46.312;25.288;2024-02-15T10:57:05;96710.03;;;13.62;42.79
50394;BME280;36308;46.312;25.288;2024-02-15T10:59:38;96713.91;;;13.76;42.85
50394;BME280;36308;46.312;25.288;2024-02-15T11:02:28;96709.13;;;13.88;42.09
50394;BME280;36308;46.312;25.288;2024-02-15T11:05:07;96708.34;;;13.98;40.94
50394;BME280;36308;46.312;25.288;2024-02-15T11:07:37;96702.13;;;13.98;40.91
50394;BME280;36308;46.312;25.288;2024-02-15T11:10:06;96700.25;;;14.03;41.65
50394;BME280;36308;46.312;25.288;2024-02-15T11:12:34;96702.47;;;14.11;41.80
50394;BME280;36308;46.312;25.288;2024-02-15T11:15:00;96697.31;;;14.15;41.24
50394;BME280;36308;46.312;25.288;2024-02-15T11:20:23;96692.16;;;14.08;39.92
50394;BME280;36308;46.312;25.288;2024-02-15T11:22:58;96686.72;;;13.98;39.28
50394;BME280;36308;46.312;25.288;2024-02-15T11:25:39;96689.66;;;13.86;39.15
50394;BME280;36308;46.312;25.288;2024-02-15T11:30:48;96690.41;;;13.82;40.22
50394;BME280;36308;46.312;25.288;2024-02-15T11:33:33;96673.31;;;13.66;40.57
50394;BME280;36308;46.312;25.288;2024-02-15T11:36:08;96686.59;;;13.78;40.95
50394;BME280;36308;46.312;25.288;2024-02-15T11:38:35;96651.88;;;13.49;40.59
50394;BME280;36308;46.312;25.288;2024-02-15T11:41:02;96681.13;;;13.62;39.47
50394;BME280;36308;46.312;25.288;2024-02-15T11:43:51;96682.94;;;13.51;39.88
50394;BME280;36308;46.312;25.288;2024-02-15T11:46:27;96686.94;;;13.44;40.11
50394;BME280;36308;46.312;25.288;2024-02-15T11:48:57;96685.03;;;13.39;40.77
50394;BME280;36308;46.312;25.288;2024-02-15T11:51:28;96692.25;;;13.33;40.35
50394;BME280;36308;46.312;25.288;2024-02-15T11:54:11;96684.06;;;13.23;40.43
50394;BME280;36308;46.312;25.288;2024-02-15T11:59:09;96689.44;;;13.18;40.28
50394;BME280;36308;46.312;25.288;2024-02-15T12:01:44;96692.06;;;13.13;40.88
50394;BME280;36308;46.312;25.288;2024-02-15T12:04:29;96682.84;;;13.04;40.88
50394;BME280;36308;46.312;25.288;2024-02-15T12:07:14;96689.28;;;13.03;40.91
50394;BME280;36308;46.312;25.288;2024-02-15T12:09:59;96691.97;;;12.98;41.12
50394;BME280;36308;46.312;25.288;2024-02-15T12:12:53;96682.75;;;12.93;40.88
50394;BME280;36308;46.312;25.288;2024-02-15T12:15:37;96669.16;;;12.83;40.81
50394;BME280;36308;46.312;25.288;2024-02-15T12:18:21;96684.22;;;12.79;40.86
50394;BME280;36308;46.312;25.288;2024-02-15T12:21:09;96681.19;;;12.70;41.35
50394;BME280;36308;46.312;25.288;2024-02-15T12:23:37;96674.44;;;12.68;41.21
50394;BME280;36308;46.312;25.288;2024-02-15T12:26:03;96681.97;;;12.66;41.39
50394;BME280;36308;46.312;25.288;2024-02-15T12:28:30;96667.84;;;12.59;41.65
50394;BME280;36308;46.312;25.288;2024-02-15T12:30:56;96655.91;;;12.49;41.09
50394;BME280;36308;46.312;25.288;2024-02-15T12:33:22;96666.22;;;12.58;41.39
50394;BME280;36308;46.312;25.288;2024-02-15T12:35:49;96665.34;;;12.52;41.56
50394;BME280;36308;46.312;25.288;2024-02-15T12:38:17;96664.59;;;12.57;41.80
50394;BME280;36308;46.312;25.288;2024-02-15T12:40:43;96665.66;;;12.56;41.93
50394;BME280;36308;46.312;25.288;2024-02-15T12:43:10;96671.66;;;12.63;41.42
50394;BME280;36308;46.312;25.288;2024-02-15T12:45:38;96662.69;;;12.57;40.93
50394;BME280;36308;46.312;25.288;2024-02-15T12:48:05;96664.84;;;12.55;40.81
50394;BME280;36308;46.312;25.288;2024-02-15T12:50:31;96667.81;;;12.53;41.01
50394;BME280;36308;46.312;25.288;2024-02-15T12:52:58;96669.41;;;12.54;40.96
50394;BME280;36308;46.312;25.288;2024-02-15T12:55:29;96660.16;;;12.45;41.34
50394;BME280;36308;46.312;25.288;2024-02-15T12:58:00;96665.03;;;12.48;41.10
50394;BME280;36308;46.312;25.288;2024-02-15T13:00:30;96637.38;;;12.31;41.01
50394;BME280;36308;46.312;25.288;2024-02-15T13:03:01;96659.59;;;12.43;41.28
50394;BME280;36308;46.312;25.288;2024-02-15T13:05:29;96649.84;;;12.37;41.68
50394;BME280;36308;46.312;25.288;2024-02-15T13:07:56;96643.31;;;12.33;41.50
50394;BME280;36308;46.312;25.288;2024-02-15T13:10:30;96655.97;;;12.32;41.37
50394;BME280;36308;46.312;25.288;2024-02-15T13:12:57;96647.84;;;12.27;41.48
50394;BME280;36308;46.312;25.288;2024-02-15T13:15:24;96623.44;;;12.12;41.53